createdAt,value
2018-06-18T00:00:14.230Z,0.00
2018-06-18T00:01:14.119Z,0.00
2018-06-18T00:02:15.093Z,0.00
2018-06-18T00:03:13.967Z,0.00
2018-06-18T00:05:55.784Z,0.00
2018-06-18T00:06:55.726Z,0.00
2018-06-18T00:07:55.638Z,0.00
2018-06-18T00:10:37.775Z,0.00
2018-06-18T00:11:37.761Z,0.00
2018-06-18T00:12:37.628Z,0.00
2018-06-18T00:15:19.778Z,0.00
2018-06-18T00:18:01.823Z,0.00
2018-06-18T00:19:01.715Z,0.00
2018-06-18T00:20:01.619Z,0.00
2018-06-18T00:21:01.570Z,0.00
2018-06-18T00:22:01.479Z,0.00
2018-06-18T00:23:01.479Z,0.00
2018-06-18T00:24:01.332Z,0.00
2018-06-18T00:25:01.238Z,0.00
2018-06-18T00:26:01.158Z,0.00
2018-06-18T00:27:01.098Z,0.00
2018-06-18T00:28:00.998Z,0.00
2018-06-18T00:29:02.124Z,0.00
2018-06-18T00:30:00.822Z,0.00
2018-06-18T00:31:00.818Z,0.00
2018-06-18T00:32:00.671Z,0.00
2018-06-18T00:33:00.615Z,0.00
2018-06-18T00:34:00.552Z,0.00
2018-06-18T00:35:00.535Z,0.00
2018-06-18T00:36:00.365Z,0.00
2018-06-18T00:37:00.350Z,0.00
2018-06-18T00:38:00.197Z,0.00
2018-06-18T00:39:00.164Z,0.00
2018-06-18T00:40:00.066Z,0.00
2018-06-18T00:42:42.284Z,0.00
2018-06-18T00:43:42.310Z,0.00
2018-06-18T00:44:42.158Z,0.00
2018-06-18T00:47:24.284Z,0.00
2018-06-18T00:48:24.290Z,0.00
2018-06-18T00:49:24.148Z,0.00
2018-06-18T00:50:24.050Z,0.00
2018-06-18T00:51:23.975Z,0.00
2018-06-18T00:52:23.908Z,0.00
2018-06-18T00:53:23.810Z,0.00
2018-06-18T00:54:23.764Z,0.00
2018-06-18T00:55:23.695Z,0.00
2018-06-18T00:56:23.621Z,0.00
2018-06-18T00:57:23.502Z,0.00
2018-06-18T00:58:23.539Z,0.00
2018-06-18T00:59:23.383Z,0.00
2018-06-18T01:00:23.303Z,0.00
2018-06-18T01:01:23.196Z,0.00
2018-06-18T01:04:05.319Z,0.00
2018-06-18T01:05:05.287Z,0.00
2018-06-18T01:06:05.130Z,0.00
2018-06-18T01:07:05.163Z,0.00
2018-06-18T01:08:04.971Z,0.00
2018-06-18T01:09:04.977Z,0.00
2018-06-18T01:10:04.832Z,0.00
2018-06-18T01:11:04.808Z,0.00
2018-06-18T01:12:04.660Z,0.00
2018-06-18T01:13:04.584Z,0.00
2018-06-18T01:14:04.498Z,0.00
2018-06-18T01:16:46.870Z,0.00
2018-06-18T01:17:46.716Z,0.00
2018-06-18T01:18:46.643Z,0.00
2018-06-18T01:19:46.599Z,0.00
2018-06-18T01:20:46.545Z,0.00
2018-06-18T01:21:46.558Z,0.00
2018-06-18T01:22:46.324Z,0.00
2018-06-18T01:23:46.312Z,0.00
2018-06-18T01:24:46.169Z,0.00
2018-06-18T01:25:46.126Z,0.00
2018-06-18T01:26:46.010Z,0.00
2018-06-18T01:27:45.990Z,0.00
2018-06-18T01:28:45.851Z,0.00
2018-06-18T01:29:45.847Z,0.00
2018-06-18T01:30:45.688Z,0.00
2018-06-18T01:31:45.667Z,0.00
2018-06-18T01:32:45.604Z,0.00
2018-06-18T01:33:45.562Z,0.00
2018-06-18T01:34:45.375Z,0.00
2018-06-18T01:35:45.383Z,0.00
2018-06-18T01:36:45.232Z,0.00
2018-06-18T01:37:45.217Z,0.00
2018-06-18T01:38:45.076Z,0.00
2018-06-18T01:41:27.291Z,0.00
2018-06-18T01:42:27.339Z,0.00
2018-06-18T01:43:27.145Z,0.00
2018-06-18T01:44:27.107Z,0.00
2018-06-18T01:45:27.034Z,0.00
2018-06-18T01:46:27.016Z,0.00
2018-06-18T01:47:26.823Z,0.00
2018-06-18T01:48:26.866Z,0.00
2018-06-18T01:49:26.675Z,0.00
2018-06-18T01:50:26.639Z,0.00
2018-06-18T01:51:26.521Z,0.00
2018-06-18T01:52:26.552Z,0.00
2018-06-18T01:53:26.377Z,0.00
2018-06-18T01:54:26.393Z,0.00
2018-06-18T01:55:26.199Z,0.00
2018-06-18T01:56:26.164Z,0.00
2018-06-18T01:57:26.033Z,0.00
2018-06-18T01:58:26.108Z,0.00
2018-06-18T01:59:25.884Z,0.00
2018-06-18T02:00:25.881Z,0.00
2018-06-18T02:01:25.724Z,0.00
2018-06-18T02:02:25.696Z,0.00
2018-06-18T02:03:25.588Z,0.00
2018-06-18T02:04:25.611Z,0.00
2018-06-18T02:05:25.451Z,0.00
2018-06-18T02:06:25.420Z,0.00
2018-06-18T02:07:25.252Z,0.00
2018-06-18T02:08:25.219Z,0.00
2018-06-18T02:10:25.047Z,0.00
2018-06-18T02:13:07.328Z,0.00
2018-06-18T02:14:07.337Z,0.00
2018-06-18T02:15:07.158Z,0.00
2018-06-18T02:16:07.223Z,0.00
2018-06-18T02:17:06.985Z,0.00
2018-06-18T02:18:06.954Z,0.00
2018-06-18T02:19:06.835Z,0.00
2018-06-18T02:21:48.834Z,0.00
2018-06-18T02:22:48.757Z,0.00
2018-06-18T02:23:48.655Z,0.00
2018-06-18T02:24:48.679Z,0.00
2018-06-18T02:25:48.711Z,0.00
2018-06-18T02:28:30.307Z,0.00
2018-06-18T02:31:12.329Z,0.00
2018-06-18T02:32:12.276Z,0.00
2018-06-18T02:33:12.161Z,0.00
2018-06-18T02:34:12.185Z,0.00
2018-06-18T02:35:12.004Z,0.00
2018-06-18T02:36:12.021Z,0.00
2018-06-18T02:37:11.836Z,0.00
2018-06-18T02:38:11.794Z,0.00
2018-06-18T02:40:36.330Z,0.00
2018-06-18T02:41:36.323Z,0.00
2018-06-18T02:42:36.157Z,4.00
2018-06-18T02:45:18.312Z,0.00
2018-06-18T02:46:18.304Z,0.00
2018-06-18T02:47:18.266Z,4.00
2018-06-18T02:48:18.121Z,4.00
2018-06-18T02:49:18.005Z,4.00
2018-06-18T02:51:59.839Z,8.00
2018-06-18T02:52:59.810Z,4.00
2018-06-18T02:53:59.660Z,8.00
2018-06-18T02:54:59.625Z,4.00
2018-06-18T02:55:59.497Z,4.00
2018-06-18T02:56:59.566Z,8.00
2018-06-18T02:57:59.372Z,8.00
2018-06-18T02:58:59.340Z,8.00
2018-06-18T02:59:59.186Z,12.00
2018-06-18T03:00:59.149Z,8.00
2018-06-18T03:01:59.061Z,12.00
2018-06-18T03:02:59.065Z,12.00
2018-06-18T03:03:58.874Z,12.00
2018-06-18T03:04:58.870Z,16.00
2018-06-18T03:05:58.715Z,16.00
2018-06-18T03:06:58.724Z,24.00
2018-06-18T03:07:58.555Z,28.00
2018-06-18T03:08:58.594Z,36.00
2018-06-18T03:09:58.398Z,40.00
2018-06-18T03:10:58.411Z,48.00
2018-06-18T03:11:58.237Z,52.00
2018-06-18T03:12:58.248Z,52.00
2018-06-18T03:13:58.078Z,52.00
2018-06-18T03:14:58.121Z,56.00
2018-06-18T03:15:57.928Z,52.00
2018-06-18T03:16:57.939Z,64.00
2018-06-18T03:17:57.780Z,88.00
2018-06-18T03:18:57.747Z,104.00
2018-06-18T03:19:57.654Z,120.00
2018-06-18T03:20:57.646Z,136.00
2018-06-18T03:21:57.447Z,164.00
2018-06-18T03:22:57.456Z,172.00
2018-06-18T03:23:57.285Z,164.00
2018-06-18T03:24:57.224Z,148.00
2018-06-18T03:25:57.152Z,144.00
2018-06-18T03:26:57.172Z,156.00
2018-06-18T03:27:56.992Z,172.00
2018-06-18T03:28:56.981Z,172.00
2018-06-18T03:29:56.820Z,168.00
2018-06-18T03:30:56.834Z,168.00
2018-06-18T03:31:56.662Z,176.00
2018-06-18T03:32:56.720Z,180.00
2018-06-18T03:33:56.503Z,188.00
2018-06-18T03:34:56.508Z,204.00
2018-06-18T03:35:56.346Z,224.00
2018-06-18T03:36:56.314Z,224.00
2018-06-18T03:37:56.180Z,236.00
2018-06-18T03:38:56.162Z,244.00
2018-06-18T03:39:56.032Z,260.00
2018-06-18T03:40:56.038Z,276.00
2018-06-18T03:41:55.885Z,280.00
2018-06-18T03:42:55.840Z,272.00
2018-06-18T03:43:55.732Z,276.00
2018-06-18T03:44:55.757Z,280.00
2018-06-18T03:45:55.555Z,276.00
2018-06-18T03:46:55.577Z,280.00
2018-06-18T03:47:55.390Z,288.00
2018-06-18T03:48:55.402Z,292.00
2018-06-18T03:49:55.236Z,300.00
2018-06-18T03:50:55.281Z,312.00
2018-06-18T03:51:55.077Z,320.00
2018-06-18T03:52:55.125Z,340.00
2018-06-18T03:53:54.915Z,408.00
2018-06-18T03:54:54.931Z,432.00
2018-06-18T03:55:54.765Z,456.00
2018-06-18T03:56:54.809Z,476.00
2018-06-18T03:57:54.633Z,496.00
2018-06-18T03:58:54.615Z,524.00
2018-06-18T03:59:54.469Z,576.00
2018-06-18T04:00:54.426Z,556.00
2018-06-18T04:01:54.282Z,524.00
2018-06-18T04:02:54.238Z,576.00
2018-06-18T04:03:54.134Z,656.00
2018-06-18T04:04:54.143Z,672.00
2018-06-18T04:05:54.007Z,604.00
2018-06-18T04:06:53.950Z,588.00
2018-06-18T04:07:53.826Z,584.00
2018-06-18T04:08:53.798Z,596.00
2018-06-18T04:09:53.651Z,580.00
2018-06-18T04:10:53.695Z,604.00
2018-06-18T04:11:53.494Z,636.00
2018-06-18T04:12:53.485Z,708.00
2018-06-18T04:13:53.336Z,732.00
2018-06-18T04:14:53.309Z,772.00
2018-06-18T04:15:53.223Z,776.00
2018-06-18T04:16:53.194Z,732.00
2018-06-18T04:17:53.023Z,668.00
2018-06-18T04:18:53.006Z,664.00
2018-06-18T04:19:52.866Z,720.00
2018-06-18T04:20:52.815Z,724.00
2018-06-18T04:21:52.722Z,708.00
2018-06-18T04:22:52.732Z,724.00
2018-06-18T04:23:52.561Z,668.00
2018-06-18T04:24:52.542Z,712.00
2018-06-18T04:25:52.442Z,764.00
2018-06-18T04:28:34.375Z,720.00
2018-06-18T04:29:34.369Z,820.00
2018-06-18T04:30:34.200Z,952.00
2018-06-18T04:31:34.180Z,1044.00
2018-06-18T04:32:34.070Z,1196.00
2018-06-18T04:33:34.110Z,1224.00
2018-06-18T04:34:33.887Z,1196.00
2018-06-18T04:35:33.877Z,1152.00
2018-06-18T04:36:33.710Z,1132.00
2018-06-18T04:37:33.721Z,1084.00
2018-06-18T04:38:33.574Z,1224.00
2018-06-18T04:41:15.876Z,1156.00
2018-06-18T04:42:15.900Z,1144.00
2018-06-18T04:43:15.742Z,1188.00
2018-06-18T04:44:15.808Z,1192.00
2018-06-18T04:45:15.541Z,1368.00
2018-06-18T04:46:15.929Z,1356.00
2018-06-18T04:47:15.404Z,1340.00
2018-06-18T04:48:16.386Z,1268.00
2018-06-18T04:49:15.228Z,1280.00
2018-06-18T04:51:57.354Z,1444.00
2018-06-18T04:52:57.374Z,1460.00
2018-06-18T04:53:57.207Z,1488.00
2018-06-18T04:54:57.145Z,1528.00
2018-06-18T04:55:57.046Z,1512.00
2018-06-18T04:56:57.055Z,1508.00
2018-06-18T04:57:56.921Z,1592.00
2018-06-18T04:58:56.891Z,1692.00
2018-06-18T04:59:56.723Z,1732.00
2018-06-18T05:00:56.680Z,1812.00
2018-06-18T05:01:56.574Z,1932.00
2018-06-18T05:02:57.546Z,2060.00
2018-06-18T05:03:56.429Z,2144.00
2018-06-18T05:04:56.397Z,2092.00
2018-06-18T05:05:56.254Z,1976.00
2018-06-18T05:06:56.190Z,1832.00
2018-06-18T05:07:56.091Z,1704.00
2018-06-18T05:08:57.065Z,1648.00
2018-06-18T05:09:55.933Z,1632.00
2018-06-18T05:10:55.914Z,1668.00
2018-06-18T05:11:55.766Z,1972.00
2018-06-18T05:14:37.887Z,2512.00
2018-06-18T05:15:37.828Z,2680.00
2018-06-18T05:16:37.696Z,2708.00
2018-06-18T05:19:19.874Z,2284.00
2018-06-18T05:20:19.844Z,2192.00
2018-06-18T05:21:19.698Z,2164.00
2018-06-18T05:22:19.760Z,2360.00
2018-06-18T05:23:19.553Z,2488.00
2018-06-18T05:24:19.590Z,2436.00
2018-06-18T05:25:19.418Z,2680.00
2018-06-18T05:26:19.418Z,2612.00
2018-06-18T05:42:59.778Z,4900.00
2018-06-18T05:43:59.560Z,5012.00
2018-06-18T05:44:59.510Z,5556.00
2018-06-18T05:45:59.414Z,5820.00
2018-06-18T05:46:59.431Z,6336.00
2018-06-18T05:47:59.236Z,5588.00
2018-06-18T05:48:59.235Z,4792.00
2018-06-18T05:49:59.087Z,4744.00
2018-06-18T05:50:59.076Z,5232.00
2018-06-18T05:51:58.944Z,5492.00
2018-06-18T05:52:58.954Z,4664.00
2018-06-18T05:53:58.762Z,4060.00
2018-06-18T05:56:40.885Z,3824.00
2018-06-18T05:57:40.905Z,3780.00
2018-06-18T05:58:40.712Z,3444.00
2018-06-18T05:59:40.697Z,3088.00
2018-06-18T06:00:40.560Z,2840.00
2018-06-18T06:01:40.584Z,2972.00
2018-06-18T06:02:40.414Z,3368.00
2018-06-18T06:03:40.389Z,3472.00
2018-06-18T06:04:40.242Z,3376.00
2018-06-18T06:05:40.196Z,3660.00
2018-06-18T06:06:40.085Z,3920.00
2018-06-18T06:07:40.165Z,4080.00
2018-06-18T06:08:39.923Z,4400.00
2018-06-18T06:11:21.908Z,5148.00
2018-06-18T06:12:22.468Z,5496.00
2018-06-18T06:13:21.772Z,5740.00
2018-06-18T06:16:15.883Z,5564.00
2018-06-18T06:17:15.903Z,5380.00
2018-06-18T06:18:15.760Z,4844.00
2018-06-18T06:19:15.730Z,5196.00
2018-06-18T06:20:15.567Z,6228.00
2018-06-18T06:21:15.537Z,6344.00
2018-06-18T06:22:15.436Z,5248.00
2018-06-18T06:23:15.502Z,4880.00
2018-06-18T06:24:15.249Z,4836.00
2018-06-18T06:25:15.299Z,5024.00
2018-06-18T06:26:15.118Z,5020.00
2018-06-18T06:27:15.063Z,5084.00
2018-06-18T06:28:14.986Z,4556.00
2018-06-18T06:32:21.911Z,4608.00
2018-06-18T06:33:24.265Z,4572.00
2018-06-18T06:34:21.748Z,5224.00
2018-06-18T06:35:24.468Z,5864.00
2018-06-18T06:36:21.580Z,6064.00
2018-06-18T06:39:14.908Z,6068.00
2018-06-18T06:40:14.829Z,5692.00
2018-06-18T06:41:14.767Z,5568.00
2018-06-18T06:42:14.809Z,5320.00
2018-06-18T06:43:14.578Z,5248.00
2018-06-18T06:44:14.607Z,4780.00
2018-06-18T06:45:14.421Z,4100.00
2018-06-18T06:47:56.420Z,5640.00
2018-06-18T06:48:56.515Z,5304.00
2018-06-18T06:49:56.387Z,5112.00
2018-06-18T06:50:56.354Z,5668.00
2018-06-18T06:51:56.071Z,5992.00
2018-06-18T06:52:56.227Z,6388.00
2018-06-18T06:53:55.933Z,6896.00
2018-06-18T06:54:55.929Z,6512.00
2018-06-18T06:55:55.768Z,6272.00
2018-06-18T06:56:55.799Z,5808.00
2018-06-18T06:57:55.608Z,5924.00
2018-06-18T06:58:55.613Z,7084.00
2018-06-18T06:59:55.475Z,8284.00
2018-06-18T07:00:55.494Z,9304.00
2018-06-18T07:01:55.351Z,7952.00
2018-06-18T07:04:37.426Z,7928.00
2018-06-18T07:05:37.934Z,8412.00
2018-06-18T07:06:37.229Z,8540.00
2018-06-18T07:07:38.304Z,8164.00
2018-06-18T07:08:37.085Z,8692.00
2018-06-18T07:09:37.049Z,7676.00
2018-06-18T07:10:36.925Z,7928.00
2018-06-18T07:13:19.012Z,8756.00
2018-06-18T07:16:00.900Z,10556.00
2018-06-18T07:17:00.853Z,11996.00
2018-06-18T07:18:00.793Z,13544.00
2018-06-18T07:19:00.759Z,13616.00
2018-06-18T07:20:00.579Z,13396.00
2018-06-18T07:21:00.590Z,16320.00
2018-06-18T07:22:00.456Z,16448.00
2018-06-18T07:23:00.421Z,15752.00
2018-06-18T07:24:00.428Z,16000.00
2018-06-18T07:26:42.704Z,16384.00
2018-06-18T07:27:42.438Z,15904.00
2018-06-18T07:28:42.280Z,17920.00
2018-06-18T07:29:42.217Z,18848.00
2018-06-18T07:30:42.196Z,14652.00
2018-06-18T07:31:42.105Z,12548.00
2018-06-18T07:32:41.947Z,10600.00
2018-06-18T07:33:42.979Z,11956.00
2018-06-18T07:34:41.787Z,11008.00
2018-06-18T07:35:41.880Z,10484.00
2018-06-18T07:36:41.672Z,10192.00
2018-06-18T07:37:42.428Z,9224.00
2018-06-18T07:38:41.792Z,9168.00
2018-06-18T07:39:41.498Z,9296.00
2018-06-18T07:42:23.798Z,8788.00
2018-06-18T07:43:23.604Z,8728.00
2018-06-18T07:44:23.705Z,10092.00
2018-06-18T07:45:23.379Z,11144.00
2018-06-18T07:46:23.300Z,12244.00
2018-06-18T07:47:23.070Z,13800.00
2018-06-18T07:48:22.982Z,17312.00
2018-06-18T07:49:23.161Z,21536.00
2018-06-18T07:50:22.790Z,16896.00
2018-06-18T07:51:22.781Z,11624.00
2018-06-18T07:52:22.688Z,8756.00
2018-06-18T07:53:22.587Z,8728.00
2018-06-18T07:54:22.520Z,9376.00
2018-06-18T07:55:22.515Z,10104.00
2018-06-18T07:56:22.321Z,8352.00
2018-06-18T07:57:22.348Z,7776.00
2018-06-18T07:58:22.172Z,8196.00
2018-06-18T07:59:22.233Z,7536.00
2018-06-18T08:00:22.075Z,8644.00
2018-06-18T08:01:22.036Z,9740.00
2018-06-18T08:02:21.871Z,13696.00
2018-06-18T08:05:03.927Z,10832.00
2018-06-18T08:06:04.282Z,10256.00
2018-06-18T08:07:03.763Z,10344.00
2018-06-18T08:08:03.742Z,11872.00
2018-06-18T08:09:03.623Z,14352.00
2018-06-18T08:10:03.620Z,13600.00
2018-06-18T08:11:03.541Z,13808.00
2018-06-18T08:12:03.497Z,14292.00
2018-06-18T08:13:03.304Z,17056.00
2018-06-18T08:15:45.533Z,19808.00
2018-06-18T08:16:45.372Z,21440.00
2018-06-18T08:17:45.273Z,40544.00
2018-06-18T08:18:45.281Z,21408.00
2018-06-18T08:19:45.159Z,22752.00
2018-06-18T08:20:45.125Z,23936.00
2018-06-18T08:21:44.973Z,23072.00
2018-06-18T08:22:45.021Z,19744.00
2018-06-18T08:23:44.813Z,19968.00
2018-06-18T08:24:44.814Z,20224.00
2018-06-18T08:25:44.685Z,19008.00
2018-06-18T08:26:44.623Z,20992.00
2018-06-18T08:27:44.514Z,22112.00
2018-06-18T08:28:44.550Z,36096.00
2018-06-18T08:29:44.341Z,24512.00
2018-06-18T08:32:26.455Z,22336.00
2018-06-18T08:33:26.444Z,20512.00
2018-06-18T08:34:26.271Z,18816.00
2018-06-18T08:35:26.259Z,18336.00
2018-06-18T08:36:26.153Z,13872.00
2018-06-18T08:39:08.435Z,18688.00
2018-06-18T08:40:08.530Z,22784.00
2018-06-18T08:41:08.280Z,22240.00
2018-06-18T08:42:08.305Z,21056.00
2018-06-18T08:43:08.122Z,23360.00
2018-06-18T08:44:08.093Z,23296.00
2018-06-18T08:45:07.970Z,24736.00
2018-06-18T08:47:49.946Z,40576.00
2018-06-18T08:48:49.876Z,33760.00
2018-06-18T08:49:49.787Z,28832.00
2018-06-18T08:52:31.963Z,24128.00
2018-06-18T08:55:17.927Z,23872.00
2018-06-18T08:56:17.885Z,18304.00
2018-06-18T08:57:17.865Z,17728.00
2018-06-18T08:58:17.823Z,20608.00
2018-06-18T08:59:17.634Z,19968.00
2018-06-18T09:00:17.603Z,20160.00
2018-06-18T09:01:17.479Z,24416.00
2018-06-18T09:03:59.446Z,19936.00
2018-06-18T09:04:59.404Z,19744.00
2018-06-18T09:05:59.275Z,22560.00
2018-06-18T09:06:59.359Z,29760.00
2018-06-18T09:07:59.140Z,29440.00
2018-06-18T09:09:00.191Z,36288.00
2018-06-18T09:09:58.998Z,22400.00
2018-06-18T09:10:59.043Z,16928.00
2018-06-18T09:11:58.839Z,15296.00
2018-06-18T09:14:40.952Z,9908.00
2018-06-18T09:17:22.967Z,12740.00
2018-06-18T09:18:22.946Z,11260.00
2018-06-18T09:19:22.809Z,9932.00
2018-06-18T09:22:04.931Z,9236.00
2018-06-18T09:23:04.960Z,8268.00
2018-06-18T09:24:04.805Z,7332.00
2018-06-18T09:26:46.952Z,8716.00
2018-06-18T09:27:46.971Z,7320.00
2018-06-18T09:28:46.806Z,7508.00
2018-06-18T09:29:48.761Z,9244.00
2018-06-18T09:30:46.638Z,11100.00
2018-06-18T09:31:46.688Z,10860.00
2018-06-18T09:32:46.484Z,9796.00
2018-06-18T09:33:46.510Z,9280.00
2018-06-18T09:34:46.369Z,9156.00
2018-06-18T09:35:46.349Z,9320.00
2018-06-18T09:36:46.188Z,8852.00
2018-06-18T09:37:46.210Z,8772.00
2018-06-18T09:38:46.040Z,8488.00
2018-06-18T09:39:47.112Z,9656.00
2018-06-18T09:40:45.890Z,10876.00
2018-06-18T09:41:46.001Z,10448.00
2018-06-18T09:42:45.729Z,8556.00
2018-06-18T09:43:45.732Z,8092.00
2018-06-18T09:44:45.600Z,9436.00
2018-06-18T09:45:45.585Z,8976.00
2018-06-18T09:46:45.462Z,9172.00
2018-06-18T09:47:45.452Z,9176.00
2018-06-18T09:48:45.274Z,9728.00
2018-06-18T09:49:45.274Z,11976.00
2018-06-18T09:50:45.115Z,12928.00
2018-06-18T09:51:45.119Z,10380.00
2018-06-18T09:52:44.978Z,9856.00
2018-06-18T09:53:44.988Z,9828.00
2018-06-18T09:54:44.832Z,9288.00
2018-06-18T09:55:44.837Z,9684.00
2018-06-18T09:56:44.693Z,10256.00
2018-06-18T09:57:44.712Z,11096.00
2018-06-18T09:58:44.524Z,14368.00
2018-06-18T09:59:44.516Z,22944.00
2018-06-18T10:00:44.370Z,25920.00
2018-06-18T10:01:44.465Z,31296.00
2018-06-18T10:02:44.211Z,29216.00
2018-06-18T10:03:44.170Z,41024.00
2018-06-18T10:04:44.055Z,89440.00
2018-06-18T10:05:44.047Z,24320.00
2018-06-18T10:06:43.939Z,34400.00
2018-06-18T10:07:43.950Z,75232.00
2018-06-18T10:08:43.866Z,65312.00
2018-06-18T10:09:43.766Z,41088.00
2018-06-18T10:10:43.673Z,33600.00
2018-06-18T10:11:43.614Z,51776.00
2018-06-18T10:12:43.457Z,62752.00
2018-06-18T10:13:43.476Z,28928.00
2018-06-18T10:14:43.316Z,29536.00
2018-06-18T10:15:43.284Z,25344.00
2018-06-18T10:16:43.190Z,20096.00
2018-06-18T10:17:43.197Z,15324.00
2018-06-18T10:18:43.015Z,13236.00
2018-06-18T10:19:43.008Z,10008.00
2018-06-18T10:20:42.876Z,8000.00
2018-06-18T10:21:42.945Z,7920.00
2018-06-18T10:22:42.747Z,6488.00
2018-06-18T10:23:42.769Z,5816.00
2018-06-18T10:24:42.581Z,5216.00
2018-06-18T10:27:24.500Z,4968.00
2018-06-18T10:28:24.427Z,4168.00
2018-06-18T10:29:24.310Z,3832.00
2018-06-18T10:32:06.470Z,5352.00
2018-06-18T10:33:06.467Z,5480.00
2018-06-18T10:34:06.312Z,5848.00
2018-06-18T10:35:06.348Z,6704.00
2018-06-18T10:36:06.181Z,6920.00
2018-06-18T10:37:06.121Z,7100.00
2018-06-18T10:38:06.022Z,6808.00
2018-06-18T10:39:06.152Z,6372.00
2018-06-18T10:40:05.877Z,6428.00
2018-06-18T10:41:05.879Z,6528.00
2018-06-18T10:42:05.726Z,6808.00
2018-06-18T10:43:05.720Z,7164.00
2018-06-18T10:44:05.559Z,7700.00
2018-06-18T10:46:47.476Z,7408.00
2018-06-18T10:47:48.576Z,9244.00
2018-06-18T10:48:47.373Z,11476.00
2018-06-18T10:49:47.311Z,12400.00
2018-06-18T10:50:47.178Z,11308.00
2018-06-18T10:51:47.232Z,9688.00
2018-06-18T10:52:47.021Z,9772.00
2018-06-18T10:53:47.060Z,9676.00
2018-06-18T10:54:46.853Z,9376.00
2018-06-18T10:57:28.973Z,9584.00
2018-06-18T10:58:28.968Z,9688.00
2018-06-18T10:59:28.918Z,9632.00
2018-06-18T11:00:28.757Z,9440.00
2018-06-18T11:01:28.691Z,9008.00
2018-06-18T11:02:28.599Z,8304.00
2018-06-18T11:03:28.697Z,7884.00
2018-06-18T11:04:29.476Z,7484.00
2018-06-18T11:05:28.364Z,7436.00
2018-06-18T11:06:28.313Z,7864.00
2018-06-18T11:07:28.216Z,8916.00
2018-06-18T11:08:28.155Z,9200.00
2018-06-18T11:09:28.065Z,9716.00
2018-06-18T11:10:28.014Z,9904.00
2018-06-18T11:11:27.910Z,10328.00
2018-06-18T11:12:27.842Z,12512.00
2018-06-18T11:13:27.756Z,12940.00
2018-06-18T11:14:27.719Z,11388.00
2018-06-18T11:15:27.614Z,9728.00
2018-06-18T11:16:27.757Z,8760.00
2018-06-18T11:17:27.810Z,9336.00
2018-06-18T11:20:09.504Z,12788.00
2018-06-18T11:22:47.572Z,11252.00
2018-06-18T11:22:48.061Z,10740.00
2018-06-18T11:23:48.037Z,10864.00
2018-06-18T11:24:47.942Z,11116.00
2018-06-18T11:25:48.004Z,11108.00
2018-06-18T11:26:47.820Z,11936.00
2018-06-18T11:29:30.027Z,10088.00
2018-06-18T11:30:29.990Z,9324.00
2018-06-18T11:31:29.826Z,7696.00
2018-06-18T11:34:11.979Z,5972.00
2018-06-18T11:36:54.030Z,6752.00
2018-06-18T11:37:53.971Z,6544.00
2018-06-18T11:38:53.837Z,6172.00
2018-06-18T11:41:36.089Z,8360.00
2018-06-18T11:42:35.985Z,8336.00
2018-06-18T11:43:35.870Z,8468.00
2018-06-18T11:44:35.810Z,8824.00
2018-06-18T11:45:35.688Z,10032.00
2018-06-18T11:46:35.745Z,11608.00
2018-06-18T11:47:35.530Z,13408.00
2018-06-18T11:48:35.507Z,13620.00
2018-06-18T11:49:35.385Z,11884.00
2018-06-18T11:50:35.452Z,10184.00
2018-06-18T11:51:35.270Z,8828.00
2018-06-18T11:52:35.249Z,7444.00
2018-06-18T11:53:35.075Z,6348.00
2018-06-18T11:54:35.052Z,6524.00
2018-06-18T11:55:34.952Z,6700.00
2018-06-18T11:56:35.899Z,8152.00
2018-06-18T11:57:34.777Z,8248.00
2018-06-18T11:58:34.758Z,8132.00
2018-06-18T11:59:34.644Z,7504.00
2018-06-18T12:00:34.666Z,6460.00
2018-06-18T12:01:34.499Z,5752.00
2018-06-18T12:02:34.501Z,6060.00
2018-06-18T12:03:34.341Z,6320.00
2018-06-18T12:04:34.282Z,7492.00
2018-06-18T12:05:34.170Z,7516.00
2018-06-18T12:06:34.144Z,6704.00
2018-06-18T12:07:34.071Z,6456.00
2018-06-18T12:08:34.000Z,6708.00
2018-06-18T12:09:33.881Z,8276.00
2018-06-18T12:10:33.914Z,11780.00
2018-06-18T12:11:33.821Z,14352.00
2018-06-18T12:12:34.514Z,13316.00
2018-06-18T12:13:33.575Z,14824.00
2018-06-18T12:14:33.545Z,16992.00
2018-06-18T12:17:15.542Z,15692.00
2018-06-18T12:18:15.454Z,13932.00
2018-06-18T12:19:15.433Z,11716.00
2018-06-18T12:20:15.281Z,10192.00
2018-06-18T12:22:50.074Z,10224.00
2018-06-18T12:22:50.625Z,10012.00
2018-06-18T12:25:32.512Z,11408.00
2018-06-18T12:26:32.483Z,12072.00
2018-06-18T12:27:32.381Z,13412.00
2018-06-18T12:28:32.333Z,15872.00
2018-06-18T12:29:32.198Z,15076.00
2018-06-18T12:30:32.136Z,13768.00
2018-06-18T12:31:32.058Z,12248.00
2018-06-18T12:32:33.101Z,13012.00
2018-06-18T12:33:31.907Z,12864.00
2018-06-18T12:34:32.869Z,12560.00
2018-06-18T12:35:31.755Z,13416.00
2018-06-18T12:36:31.734Z,12696.00
2018-06-18T12:37:31.613Z,13640.00
2018-06-18T12:38:31.640Z,12452.00
2018-06-18T12:39:31.492Z,10444.00
2018-06-18T12:42:13.521Z,4680.00
2018-06-18T12:43:13.556Z,4260.00
2018-06-18T12:44:13.370Z,4660.00
2018-06-18T12:45:14.440Z,5944.00
2018-06-18T12:46:13.224Z,7560.00
2018-06-18T12:47:13.266Z,8232.00
2018-06-18T12:48:13.054Z,8592.00
2018-06-18T12:49:13.081Z,9680.00
2018-06-18T12:50:12.945Z,10464.00
2018-06-18T12:51:12.905Z,11808.00
2018-06-18T12:52:12.769Z,11392.00
2018-06-18T12:53:12.841Z,12428.00
2018-06-18T12:54:12.641Z,13460.00
2018-06-18T12:55:12.659Z,12676.00
2018-06-18T12:56:12.470Z,11336.00
2018-06-18T12:58:54.621Z,15496.00
2018-06-18T12:59:54.964Z,16768.00
2018-06-18T13:00:54.393Z,17376.00
2018-06-18T13:03:36.582Z,12820.00
2018-06-18T13:06:18.553Z,10192.00
2018-06-18T13:07:18.526Z,9684.00
2018-06-18T13:08:18.370Z,9780.00
2018-06-18T13:09:18.328Z,10864.00
2018-06-18T13:10:18.247Z,11816.00
2018-06-18T13:13:00.572Z,14696.00
2018-06-18T13:14:00.548Z,15260.00
2018-06-18T13:15:00.423Z,14396.00
2018-06-18T13:16:01.454Z,10880.00
2018-06-18T13:17:00.214Z,9768.00
2018-06-18T13:18:00.272Z,8676.00
2018-06-18T13:19:00.065Z,9648.00
2018-06-18T13:20:00.095Z,9600.00
2018-06-18T13:20:59.934Z,9492.00
2018-06-18T13:21:59.896Z,10508.00
2018-06-18T13:22:59.795Z,13916.00
2018-06-18T13:23:59.819Z,16672.00
2018-06-18T13:24:59.699Z,16704.00
2018-06-18T13:25:59.652Z,15736.00
2018-06-18T13:26:59.477Z,14420.00
2018-06-18T13:27:59.536Z,11288.00
2018-06-18T13:28:59.324Z,9628.00
2018-06-18T13:31:41.544Z,11784.00
2018-06-18T13:32:41.559Z,12704.00
2018-06-18T13:33:41.387Z,14912.00
2018-06-18T13:34:41.333Z,16864.00
2018-06-18T13:35:41.259Z,17536.00
2018-06-18T13:36:41.245Z,16032.00
2018-06-18T13:37:41.117Z,15804.00
2018-06-18T13:38:41.094Z,14964.00
2018-06-18T13:39:40.934Z,13752.00
2018-06-18T13:40:40.959Z,12580.00
2018-06-18T13:41:40.799Z,12292.00
2018-06-18T13:42:40.808Z,12016.00
2018-06-18T13:43:40.641Z,13376.00
2018-06-18T13:44:40.684Z,14848.00
2018-06-18T13:45:40.479Z,14712.00
2018-06-18T13:46:40.531Z,14824.00
2018-06-18T13:47:40.392Z,14748.00
2018-06-18T13:48:45.322Z,14344.00
2018-06-18T13:49:40.188Z,14204.00
2018-06-18T13:50:42.149Z,14756.00
2018-06-18T13:51:40.075Z,14840.00
2018-06-18T13:52:40.077Z,13008.00
2018-06-18T13:53:40.255Z,12732.00
2018-06-18T13:56:22.036Z,10148.00
2018-06-18T13:57:22.039Z,8508.00
2018-06-18T13:58:21.919Z,7268.00
2018-06-18T13:59:21.948Z,6916.00
2018-06-18T14:00:21.756Z,5788.00
2018-06-18T14:01:21.755Z,5144.00
2018-06-18T14:02:21.603Z,5184.00
2018-06-18T14:03:22.643Z,5336.00
2018-06-18T14:04:21.441Z,5372.00
2018-06-18T14:07:03.546Z,8808.00
2018-06-18T14:08:03.560Z,8556.00
2018-06-18T14:09:03.441Z,9332.00
2018-06-18T14:11:45.557Z,7616.00
2018-06-18T14:14:27.559Z,6016.00
2018-06-18T14:15:27.581Z,5000.00
2018-06-18T14:16:27.384Z,4580.00
2018-06-18T14:17:27.394Z,4656.00
2018-06-18T14:18:27.247Z,5468.00
2018-06-18T14:19:27.248Z,7908.00
2018-06-18T14:20:27.100Z,10564.00
2018-06-18T14:23:09.065Z,8636.00
2018-06-18T14:24:09.045Z,8212.00
2018-06-18T14:25:08.906Z,7500.00
2018-06-18T14:27:51.054Z,5804.00
2018-06-18T14:30:33.137Z,11788.00